Time;durP1;ratioP1;P1;durP2;ratioP2;P2;SDS_P1;SDS_P2;PMS_P1;PMS_P2;Temp;Humidity;BMP_temperature;BMP_pressure;BME280_temperature;BME280_humidity;BME280_pressure;Samples;Min_cycle;Max_cycle;Signal;HPM_P1;HPM_P2
2023/03/13 00:01:55;;;;;;;9.93;2.67;;;18.80;1.00;;;;;;5016056;28;20537;-38
2023/03/13 00:04:21;;;;;;;16.23;3.10;;;18.80;1.00;;;;;;5032852;28;20408;-38
2023/03/13 00:06:48;;;;;;;4.80;1.92;;;18.80;1.00;;;;;;5033784;28;20455;-38
2023/03/13 00:09:15;;;;;;;6.72;2.35;;;18.70;1.00;;;;;;5033704;28;20037;-38
2023/03/13 00:11:44;;;;;;;10.43;2.83;;;18.70;1.00;;;;;;5033881;28;20155;-38
2023/03/13 00:14:11;;;;;;;10.38;2.55;;;18.70;1.00;;;;;;5032839;28;20041;-38
2023/03/13 00:16:38;;;;;;;11.18;2.47;;;18.60;1.00;;;;;;5033349;28;20041;-38
2023/03/13 00:19:06;;;;;;;11.57;2.33;;;18.60;1.00;;;;;;5033231;28;20515;-38
2023/03/13 00:21:36;;;;;;;15.60;1.98;;;18.60;1.00;;;;;;5033461;28;20124;-38
2023/03/13 00:24:03;;;;;;;11.95;2.40;;;18.50;1.00;;;;;;5032606;28;20053;-38
2023/03/13 00:26:30;;;;;;;7.30;1.90;;;18.50;1.00;;;;;;5033213;28;20091;-38
2023/03/13 00:28:57;;;;;;;6.97;3.10;;;18.50;1.00;;;;;;5033202;28;20052;-38
2023/03/13 00:31:29;;;;;;;11.60;2.95;;;18.40;1.00;;;;;;4999186;28;20056;-38
2023/03/13 00:34:05;;;;;;;14.15;2.92;;;18.40;1.00;;;;;;5032420;28;20042;-37
2023/03/13 00:36:33;;;;;;;10.45;1.83;;;18.40;1.00;;;;;;5033067;28;20045;-38
2023/03/13 00:39:02;;;;;;;13.68;2.92;;;18.40;1.00;;;;;;5032354;28;20095;-38
2023/03/13 00:41:31;;;;;;;10.65;2.50;;;18.30;1.00;;;;;;5033080;28;20045;-38
2023/03/13 00:43:58;;;;;;;11.13;2.33;;;18.30;1.00;;;;;;5032197;28;20132;-38
2023/03/13 00:46:28;;;;;;;9.60;2.95;;;18.30;1.00;;;;;;5032868;28;20045;-38
2023/03/13 00:48:56;;;;;;;10.75;2.53;;;18.30;1.00;;;;;;5032676;28;20037;-38
2023/03/13 00:51:25;;;;;;;8.80;2.10;;;18.20;1.00;;;;;;5032863;28;20059;-38
2023/03/13 00:53:53;;;;;;;13.70;2.92;;;18.20;1.00;;;;;;5014329;28;20041;-38
2023/03/13 00:56:20;;;;;;;9.23;2.38;;;18.20;1.00;;;;;;5032755;28;20099;-38
2023/03/13 00:58:49;;;;;;;13.38;3.30;;;18.10;1.00;;;;;;5014877;28;20329;-38
2023/03/13 01:01:27;;;;;;;10.18;2.10;;;18.10;1.00;;;;;;5031478;28;20555;-37
2023/03/13 01:03:58;;;;;;;10.35;2.17;;;18.10;1.00;;;;;;5014146;28;20053;-38
2023/03/13 01:06:29;;;;;;;9.70;2.78;;;18.00;1.00;;;;;;5014698;28;20049;-38
2023/03/13 01:08:57;;;;;;;12.05;2.53;;;18.00;1.00;;;;;;5032946;28;20491;-37
2023/03/13 01:11:28;;;;;;;12.35;2.50;;;18.00;1.00;;;;;;5014788;28;20523;-38
2023/03/13 01:13:57;;;;;;;10.55;2.38;;;18.00;1.00;;;;;;5031759;28;20037;-37
2023/03/13 01:16:26;;;;;;;5.32;1.65;;;17.90;1.00;;;;;;5032448;28;20058;-37
2023/03/13 01:18:58;;;;;;;8.07;1.95;;;17.90;1.00;;;;;;5032581;28;20068;-38
2023/03/13 01:21:25;;;;;;;5.53;1.90;;;17.90;1.00;;;;;;5014607;28;20100;-38
2023/03/13 01:23:53;;;;;;;5.93;2.55;;;17.80;1.00;;;;;;5013800;28;20058;-38
2023/03/13 01:26:20;;;;;;;12.63;2.55;;;17.80;1.00;;;;;;5014713;28;20050;-38
2023/03/13 01:28:48;;;;;;;6.22;1.17;;;17.80;1.00;;;;;;5032104;28;20444;-37
2023/03/13 01:31:23;;;;;;;9.52;1.67;;;17.80;1.00;;;;;;5032362;28;20477;-38
2023/03/13 01:33:54;;;;;;;8.70;1.80;;;17.70;1.00;;;;;;5031199;28;20041;-37
2023/03/13 01:36:22;;;;;;;7.03;1.98;;;17.70;1.00;;;;;;5032148;28;20103;-38
2023/03/13 01:38:51;;;;;;;7.72;1.88;;;17.70;1.00;;;;;;5032163;28;20049;-38
2023/03/13 01:41:19;;;;;;;9.45;2.22;;;17.70;1.00;;;;;;5032129;28;20517;-38
2023/03/13 01:43:46;;;;;;;6.45;1.85;;;17.60;1.00;;;;;;5013385;28;20049;-38
2023/03/13 01:46:17;;;;;;;6.68;2.15;;;17.60;1.00;;;;;;5014136;28;20060;-38
2023/03/13 01:49:02;;;;;;;7.53;2.33;;;17.60;1.00;;;;;;5032124;28;20471;-37
2023/03/13 01:51:42;;;;;;;8.02;1.92;;;17.60;1.00;;;;;;5013351;28;20038;-38
2023/03/13 01:54:31;;;;;;;7.40;1.88;;;17.50;1.00;;;;;;5013565;28;20041;-38
2023/03/13 01:57:08;;;;;;;6.32;2.15;;;17.50;1.00;;;;;;5013956;28;20048;-38
2023/03/13 01:59:53;;;;;;;7.10;2.53;;;17.50;1.00;;;;;;5014106;28;20080;-38
2023/03/13 02:02:21;;;;;;;7.18;2.05;;;17.50;1.00;;;;;;5013564;28;20049;-38
2023/03/13 02:04:54;;;;;;;8.82;2.05;;;17.50;1.00;;;;;;5013713;28;20509;-37
2023/03/13 02:07:27;;;;;;;7.60;2.22;;;17.40;1.00;;;;;;5013953;28;20409;-38
2023/03/13 02:09:55;;;;;;;10.65;1.40;;;17.40;1.00;;;;;;5014242;28;20045;-37
2023/03/13 02:12:32;;;;;;;5.28;1.60;;;17.40;1.00;;;;;;5031722;28;20039;-37
2023/03/13 02:15:04;;;;;;;7.60;1.83;;;17.40;1.00;;;;;;5013608;28;20124;-38
2023/03/13 02:17:34;;;;;;;7.90;2.13;;;17.40;1.00;;;;;;5013983;28;20136;-37
2023/03/13 02:20:02;;;;;;;6.53;1.75;;;17.30;1.00;;;;;;5013665;28;20088;-37
2023/03/13 02:23:01;;;;;;;3.47;1.60;;;17.30;1.00;;;;;;5013759;28;20049;-38
2023/03/13 02:25:40;;;;;;;5.07;1.85;;;17.30;1.00;;;;;;5031707;28;20056;-37
2023/03/13 02:28:12;;;;;;;9.20;2.03;;;17.30;1.00;;;;;;5013665;28;20095;-38
2023/03/13 02:30:42;;;;;;;5.80;2.08;;;17.30;1.00;;;;;;5013843;28;20520;-38
2023/03/13 02:33:11;;;;;;;12.85;2.03;;;17.20;1.00;;;;;;5013286;28;20459;-37
2023/03/13 02:35:38;;;;;;;6.50;1.67;;;17.20;1.00;;;;;;5031509;28;20049;-37
2023/03/13 02:38:13;;;;;;;6.00;1.30;;;17.20;1.00;;;;;;5013778;28;20046;-37
2023/03/13 02:40:44;;;;;;;5.28;1.20;;;17.20;1.00;;;;;;5013610;28;20156;-37
2023/03/13 02:43:17;;;;;;;6.43;2.08;;;17.10;1.00;;;;;;5012991;28;20079;-37
2023/03/13 02:46:10;;;;;;;4.22;1.25;;;17.10;1.00;;;;;;5031422;28;20471;-37
2023/03/13 02:48:51;;;;;;;5.38;1.75;;;17.10;1.00;;;;;;5013599;28;20098;-37
2023/03/13 02:51:40;;;;;;;4.45;1.40;;;17.10;1.00;;;;;;5013465;28;20046;-37
2023/03/13 02:54:13;;;;;;;5.40;1.42;;;17.10;1.00;;;;;;5012868;28;20053;-37
2023/03/13 02:56:44;;;;;;;7.28;1.67;;;17.10;1.00;;;;;;5030071;28;20072;-38
2023/03/13 02:59:11;;;;;;;6.70;1.92;;;17.00;1.00;;;;;;5013553;28;20059;-37
2023/03/13 03:01:41;;;;;;;4.55;1.73;;;17.00;1.00;;;;;;5014537;28;20076;-38
2023/03/13 03:04:08;;;;;;;5.53;1.70;;;17.00;1.00;;;;;;5016372;28;20500;-37
2023/03/13 03:06:36;;;;;;;6.07;2.60;;;17.00;1.00;;;;;;5017090;28;20041;-38
2023/03/13 03:09:04;;;;;;;7.15;2.05;;;17.00;1.00;;;;;;5016965;28;20049;-38
2023/03/13 03:11:34;;;;;;;8.48;2.03;;;17.00;1.00;;;;;;5017103;28;20052;-38
2023/03/13 03:14:05;;;;;;;6.88;2.15;;;17.00;1.00;;;;;;5016089;28;20413;-38
2023/03/13 03:16:37;;;;;;;7.22;2.10;;;16.90;1.00;;;;;;5016851;28;20042;-37
2023/03/13 03:19:05;;;;;;;6.60;1.88;;;16.90;1.00;;;;;;5034632;28;20045;-38
2023/03/13 03:21:33;;;;;;;6.22;1.83;;;16.90;1.00;;;;;;5034517;28;20420;-37
2023/03/13 03:24:00;;;;;;;8.18;1.92;;;16.90;1.00;;;;;;5016061;28;20497;-37
2023/03/13 03:26:27;;;;;;;7.38;1.73;;;16.90;1.00;;;;;;5016604;28;20072;-38
2023/03/13 03:28:54;;;;;;;4.95;1.30;;;16.90;1.00;;;;;;5016653;28;20092;-37
2023/03/13 03:31:21;;;;;;;5.55;1.65;;;16.80;1.00;;;;;;5016625;28;20052;-37
2023/03/13 03:33:48;;;;;;;7.63;1.42;;;16.80;1.00;;;;;;5017242;28;20067;-37
2023/03/13 03:36:19;;;;;;;8.52;2.20;;;16.80;1.00;;;;;;5053992;28;20040;-38
2023/03/13 03:38:47;;;;;;;7.43;1.55;;;16.80;1.00;;;;;;5027824;28;20095;-38
2023/03/13 03:41:18;;;;;;;6.00;2.55;;;16.80;1.00;;;;;;5025937;28;20052;-38
2023/03/13 03:43:46;;;;;;;8.88;1.67;;;16.80;1.00;;;;;;5029124;28;20041;-38
2023/03/13 03:46:16;;;;;;;10.35;1.80;;;16.80;1.00;;;;;;5034110;28;20037;-38
2023/03/13 03:48:42;;;;;;;2.85;1.73;;;16.70;1.00;;;;;;5035939;28;20187;-38
2023/03/13 03:51:11;;;;;;;5.30;1.58;;;16.70;1.00;;;;;;5036139;28;20068;-39
2023/03/13 03:53:40;;;;;;;9.77;2.72;;;16.70;1.00;;;;;;5035313;28;20132;-38
2023/03/13 03:56:07;;;;;;;6.47;2.13;;;16.70;1.00;;;;;;5036038;28;20057;-39
2023/03/13 03:58:39;;;;;;;5.55;2.20;;;16.70;1.00;;;;;;5035516;28;20076;-39
2023/03/13 04:01:20;;;;;;;8.25;2.33;;;16.70;1.00;;;;;;5035935;28;20056;-38
2023/03/13 04:03:47;;;;;;;5.55;1.92;;;16.60;1.00;;;;;;5035185;28;20048;-39
2023/03/13 04:06:15;;;;;;;8.73;1.85;;;16.70;1.00;;;;;;5035799;28;20041;-38
2023/03/13 04:08:42;;;;;;;10.05;2.60;;;16.60;1.00;;;;;;5035936;28;20098;-38
2023/03/13 04:11:12;;;;;;;10.82;1.80;;;16.60;1.00;;;;;;5035567;28;20045;-39
2023/03/13 04:13:43;;;;;;;4.80;1.67;;;16.60;1.00;;;;;;5034178;28;20087;-38
2023/03/13 04:16:10;;;;;;;12.38;2.00;;;16.60;1.00;;;;;;5035484;28;20455;-39
2023/03/13 04:18:37;;;;;;;6.20;1.35;;;16.60;1.00;;;;;;5035641;28;20059;-38
2023/03/13 04:21:05;;;;;;;5.97;2.13;;;16.50;1.00;;;;;;5035502;28;20049;-39
2023/03/13 04:23:41;;;;;;;9.23;2.08;;;16.50;1.00;;;;;;5034691;28;20108;-38
2023/03/13 04:26:07;;;;;;;10.70;1.90;;;16.50;1.00;;;;;;5035380;28;20048;-38
2023/03/13 04:28:35;;;;;;;13.52;2.35;;;16.50;1.00;;;;;;5035345;28;20048;-39
2023/03/13 04:31:05;;;;;;;7.95;2.47;;;16.50;1.00;;;;;;5035196;28;20500;-38
2023/03/13 04:33:51;;;;;;;9.90;1.83;;;16.50;1.00;;;;;;5052751;28;20052;-39
2023/03/13 04:36:36;;;;;;;11.55;2.60;;;16.50;1.00;;;;;;5053341;28;20051;-38
2023/03/13 04:39:24;;;;;;;8.75;2.63;;;16.40;1.00;;;;;;5052974;28;20140;-39
2023/03/13 04:42:10;;;;;;;11.93;2.95;;;16.50;1.00;;;;;;5053083;28;20056;-39
2023/03/13 04:44:54;;;;;;;5.90;1.90;;;16.40;1.00;;;;;;5034813;28;20048;-39
2023/03/13 04:47:46;;;;;;;8.80;2.22;;;16.40;1.00;;;;;;5042296;28;20060;-39
2023/03/13 04:50:31;;;;;;;9.15;2.25;;;16.40;1.00;;;;;;5053156;28;20578;-39
2023/03/13 04:53:07;;;;;;;9.82;2.38;;;16.40;1.00;;;;;;5051962;28;20052;-39
2023/03/13 04:55:53;;;;;;;6.70;1.85;;;16.40;1.00;;;;;;5034922;28;20053;-39
2023/03/13 04:58:40;;;;;;;7.72;2.45;;;16.40;1.00;;;;;;5034804;28;20061;-39
2023/03/13 05:01:26;;;;;;;8.52;3.03;;;16.40;1.00;;;;;;5052902;28;20078;-39
2023/03/13 05:04:15;;;;;;;8.55;2.33;;;16.40;1.00;;;;;;5033929;28;20072;-39
2023/03/13 05:07:02;;;;;;;5.93;2.83;;;16.30;1.00;;;;;;5050788;28;20527;-39
2023/03/13 05:09:46;;;;;;;13.07;2.63;;;16.30;1.00;;;;;;5025152;28;20503;-39
2023/03/13 05:12:31;;;;;;;16.70;2.97;;;16.30;1.00;;;;;;5051550;28;20048;-39
2023/03/13 05:15:18;;;;;;;9.52;2.65;;;16.30;1.00;;;;;;5035193;28;20076;-38
2023/03/13 05:18:04;;;;;;;13.73;2.33;;;16.30;1.00;;;;;;5052233;28;20051;-38
2023/03/13 05:20:46;;;;;;;16.73;3.55;;;16.30;1.00;;;;;;5028632;28;20052;-39
2023/03/13 05:23:39;;;;;;;14.85;2.78;;;16.30;1.00;;;;;;5022296;28;20508;-38
2023/03/13 05:26:28;;;;;;;12.27;2.10;;;16.20;1.00;;;;;;5049601;28;20134;-38
2023/03/13 05:29:21;;;;;;;14.65;2.60;;;16.20;1.00;;;;;;5042498;28;20041;-38
2023/03/13 05:32:03;;;;;;;10.15;2.15;;;16.20;1.00;;;;;;5052114;28;20508;-38
2023/03/13 05:34:40;;;;;;;11.25;2.55;;;16.20;1.00;;;;;;5033739;28;20079;-38
2023/03/13 05:37:21;;;;;;;20.08;4.03;;;16.20;1.00;;;;;;5034061;28;20048;-38
2023/03/13 05:39:56;;;;;;;10.23;2.55;;;16.20;1.00;;;;;;5034218;28;20087;-39
2023/03/13 05:42:29;;;;;;;15.95;3.78;;;16.20;1.00;;;;;;5051048;28;20049;-39
2023/03/13 05:45:00;;;;;;;12.40;2.53;;;16.20;1.00;;;;;;5051487;28;20523;-39
2023/03/13 05:47:53;;;;;;;9.82;3.30;;;16.10;1.00;;;;;;5035539;28;20057;-39
2023/03/13 05:50:34;;;;;;;10.85;3.58;;;16.10;1.00;;;;;;5033362;28;20068;-39
2023/03/13 05:53:16;;;;;;;8.80;2.58;;;16.10;1.00;;;;;;5047354;28;20404;-39
2023/03/13 05:56:21;;;;;;;10.88;3.35;;;16.10;1.00;;;;;;4988813;28;20162;-39
2023/03/13 05:58:58;;;;;;;9.75;2.97;;;16.10;1.00;;;;;;4973836;28;20046;-39
2023/03/13 06:01:54;;;;;;;13.40;3.15;;;16.10;1.00;;;;;;4950713;28;20055;-39
2023/03/13 06:04:32;;;;;;;18.45;3.80;;;16.10;1.00;;;;;;5013408;28;20493;-39
2023/03/13 06:07:00;;;;;;;12.50;3.45;;;16.10;1.00;;;;;;5013940;28;20508;-39
2023/03/13 06:09:27;;;;;;;14.00;2.70;;;16.10;1.00;;;;;;5031850;28;20065;-39
2023/03/13 06:11:55;;;;;;;12.25;2.45;;;16.10;1.00;;;;;;5013854;28;20041;-39
2023/03/13 06:14:23;;;;;;;10.85;3.15;;;16.10;1.00;;;;;;5013132;28;20041;-39
2023/03/13 06:17:08;;;;;;;8.70;2.30;;;16.10;1.00;;;;;;5031032;28;20056;-39
2023/03/13 06:19:35;;;;;;;13.45;3.47;;;16.00;1.00;;;;;;5029511;28;20438;-39
2023/03/13 06:22:01;;;;;;;10.60;3.58;;;16.00;1.00;;;;;;5031567;28;20041;-39
2023/03/13 06:24:28;;;;;;;18.52;4.00;;;16.00;1.00;;;;;;5030682;28;20045;-39
2023/03/13 06:26:55;;;;;;;12.80;3.15;;;16.00;1.00;;;;;;5017000;28;20041;-38
2023/03/13 06:29:23;;;;;;;10.20;2.67;;;16.00;1.00;;;;;;5016477;28;20044;-39
2023/03/13 06:31:50;;;;;;;11.48;3.72;;;16.00;1.00;;;;;;5014834;28;20042;-38
2023/03/13 06:34:17;;;;;;;13.52;2.47;;;16.00;1.00;;;;;;5029062;28;20044;-39
2023/03/13 06:36:44;;;;;;;14.52;2.97;;;16.00;1.00;;;;;;5032495;28;20052;-39
2023/03/13 06:39:11;;;;;;;8.70;2.50;;;16.00;1.00;;;;;;5094300;22;20048;-38
2023/03/13 06:41:38;;;;;;;10.35;3.08;;;16.00;1.00;;;;;;5095292;28;20054;-38
2023/03/13 06:44:05;;;;;;;15.82;3.22;;;15.90;1.00;;;;;;5094896;28;20041;-38
2023/03/13 06:46:32;;;;;;;18.60;3.78;;;15.90;1.00;;;;;;5095414;28;20211;-38
2023/03/13 06:49:03;;;;;;;14.30;3.22;;;16.00;1.00;;;;;;5095321;28;20060;-38
2023/03/13 06:51:30;;;;;;;11.95;3.38;;;15.90;1.00;;;;;;5095591;28;20078;-38
2023/03/13 06:53:57;;;;;;;17.27;3.67;;;15.90;1.00;;;;;;5094459;28;20082;-38
2023/03/13 06:56:24;;;;;;;10.45;3.38;;;15.90;1.00;;;;;;5095076;28;20123;-38
2023/03/13 06:58:50;;;;;;;12.43;3.95;;;15.90;1.00;;;;;;5095144;28;20071;-37
2023/03/13 07:01:17;;;;;;;7.57;2.40;;;15.90;1.00;;;;;;5095153;28;20040;-37
2023/03/13 07:03:46;;;;;;;14.38;2.83;;;15.90;1.00;;;;;;5094252;28;20040;-38
2023/03/13 07:06:14;;;;;;;13.07;3.22;;;15.90;1.00;;;;;;5094908;28;20044;-39
2023/03/13 07:08:43;;;;;;;12.13;2.90;;;15.90;1.00;;;;;;5094984;28;20064;-38
2023/03/13 07:11:12;;;;;;;13.55;2.92;;;15.90;1.00;;;;;;5095177;28;20044;-39
2023/03/13 07:13:39;;;;;;;14.05;3.25;;;15.80;1.00;;;;;;5094069;28;20114;-39
2023/03/13 07:16:08;;;;;;;12.85;2.78;;;15.80;1.00;;;;;;5094971;28;20040;-39
2023/03/13 07:18:35;;;;;;;14.07;3.05;;;15.80;1.00;;;;;;5094811;28;20048;-38
2023/03/13 07:21:04;;;;;;;13.93;3.67;;;15.80;1.00;;;;;;5094632;28;20044;-39
2023/03/13 07:23:32;;;;;;;18.58;3.67;;;15.80;1.00;;;;;;5093844;28;20499;-39
2023/03/13 07:26:01;;;;;;;10.52;3.70;;;15.80;1.00;;;;;;5094642;28;20048;-39
2023/03/13 07:28:32;;;;;;;18.90;3.83;;;15.80;1.00;;;;;;5094289;28;20040;-39
2023/03/13 07:31:06;;;;;;;14.02;3.60;;;15.80;1.00;;;;;;5094676;28;20109;-37
2023/03/13 07:33:33;;;;;;;19.25;3.85;;;15.80;1.00;;;;;;5093790;28;20044;-38
2023/03/13 07:36:00;;;;;;;10.27;4.00;;;15.80;1.00;;;;;;5094422;28;20115;-38
2023/03/13 07:38:27;;;;;;;17.20;3.70;;;15.80;1.00;;;;;;5094334;28;20040;-37
2023/03/13 07:40:55;;;;;;;11.13;3.17;;;15.80;1.00;;;;;;5094462;28;20453;-38
2023/03/13 07:43:23;;;;;;;13.85;2.65;;;15.70;1.00;;;;;;5093656;28;20044;-38
2023/03/13 07:45:51;;;;;;;14.23;3.08;;;15.70;1.00;;;;;;5094456;28;20055;-38
2023/03/13 07:48:19;;;;;;;12.90;2.53;;;15.70;1.00;;;;;;5092536;28;20050;-38
2023/03/13 07:50:45;;;;;;;12.43;3.80;;;15.70;1.00;;;;;;5094244;28;20036;-38
2023/03/13 07:53:12;;;;;;;12.48;4.18;;;15.70;1.00;;;;;;5093202;28;20093;-38
2023/03/13 07:55:41;;;;;;;13.88;3.40;;;15.70;1.00;;;;;;5094359;28;20479;-38
2023/03/13 07:58:08;;;;;;;17.08;3.95;;;15.70;1.00;;;;;;5093905;28;20553;-39
2023/03/13 08:00:35;;;;;;;12.63;4.05;;;15.70;1.00;;;;;;5094057;28;20051;-43
2023/03/13 08:03:05;;;;;;;12.25;3.80;;;15.70;1.00;;;;;;5093047;28;20058;-39
2023/03/13 08:05:36;;;;;;;8.93;3.08;;;15.70;1.00;;;;;;5093920;28;20051;-38
2023/03/13 08:08:11;;;;;;;12.77;3.13;;;15.70;1.00;;;;;;5093273;28;20495;-38
2023/03/13 08:10:47;;;;;;;;;;;15.70;1.00;;;;;;5094327;28;20060;-38
2023/03/13 08:13:24;;;;;;;15.23;3.33;;;15.70;1.00;;;;;;5088535;28;20110;-38
2023/03/13 08:16:33;;;;;;;12.65;3.97;;;15.70;1.00;;;;;;5093699;28;20047;-38
2023/03/13 08:19:06;;;;;;;13.95;2.88;;;15.70;1.00;;;;;;5093538;28;20036;-38
2023/03/13 08:21:35;;;;;;;7.78;2.95;;;15.70;1.00;;;;;;5093478;28;20568;-38
2023/03/13 08:24:05;;;;;;;10.82;2.75;;;15.70;1.00;;;;;;5092797;28;20094;-37
2023/03/13 08:26:35;;;;;;;13.95;3.42;;;15.70;1.00;;;;;;5093322;28;20046;-38
2023/03/13 08:29:06;;;;;;;12.95;2.97;;;15.60;1.00;;;;;;5093336;28;20040;-38
2023/03/13 08:31:46;;;;;;;15.20;3.70;;;15.70;1.00;;;;;;5093368;28;20081;-39
2023/03/13 08:34:14;;;;;;;18.23;2.95;;;15.70;1.00;;;;;;5092484;28;20525;-39
2023/03/13 08:36:41;;;;;;;13.65;3.53;;;15.70;1.00;;;;;;5093228;28;20044;-38
2023/03/13 08:39:16;;;;;;;16.80;4.35;;;15.60;1.00;;;;;;5075153;28;20051;-38
2023/03/13 08:41:43;;;;;;;13.77;3.55;;;15.70;1.00;;;;;;5093159;28;20058;-38
2023/03/13 08:44:12;;;;;;;14.15;3.35;;;15.60;1.00;;;;;;5092492;28;20036;-37
2023/03/13 08:46:39;;;;;;;7.53;3.58;;;15.70;1.00;;;;;;5092902;28;20048;-38
2023/03/13 08:49:07;;;;;;;9.38;3.42;;;15.60;1.00;;;;;;5092982;28;20046;-38
2023/03/13 08:51:34;;;;;;;11.80;3.42;;;15.70;1.00;;;;;;5093124;28;20054;-38
2023/03/13 08:54:02;;;;;;;15.52;3.35;;;15.60;1.00;;;;;;5092103;28;20056;-38
2023/03/13 08:56:30;;;;;;;20.77;5.35;;;15.60;1.00;;;;;;5092900;28;20472;-38
2023/03/13 08:58:59;;;;;;;12.73;2.80;;;15.60;1.00;;;;;;5092058;28;20056;-38
2023/03/13 09:01:29;;;;;;;11.55;3.00;;;15.70;1.00;;;;;;5092849;28;20044;-38
2023/03/13 09:03:57;;;;;;;16.08;4.32;;;15.70;1.00;;;;;;5092022;28;20401;-38
2023/03/13 09:06:24;;;;;;;7.93;3.20;;;15.60;1.00;;;;;;5092729;28;20101;-39
2023/03/13 09:08:51;;;;;;;15.43;3.70;;;15.60;1.00;;;;;;5092553;28;20404;-38
2023/03/13 09:11:20;;;;;;;11.10;3.72;;;15.70;1.00;;;;;;5092767;28;20040;-38
2023/03/13 09:13:49;;;;;;;13.95;3.25;;;15.60;1.00;;;;;;5091650;28;20047;-38
2023/03/13 09:16:21;;;;;;;16.27;2.92;;;15.60;1.00;;;;;;5092495;28;20074;-37
2023/03/13 09:18:49;;;;;;;14.98;3.05;;;15.70;1.00;;;;;;5092468;28;20135;-37
2023/03/13 09:21:18;;;;;;;12.95;3.65;;;15.70;1.00;;;;;;5092722;28;20372;-38
2023/03/13 09:23:46;;;;;;;15.13;4.10;;;15.70;1.00;;;;;;5091500;28;20044;-36
2023/03/13 09:26:14;;;;;;;12.85;3.80;;;15.70;1.00;;;;;;5092414;28;20116;-37
2023/03/13 09:28:41;;;;;;;10.75;3.90;;;15.70;1.00;;;;;;5092180;28;20048;-38
2023/03/13 09:31:13;;;;;;;12.93;3.22;;;15.70;1.00;;;;;;5092444;28;20124;-38
2023/03/13 09:33:42;;;;;;;10.35;3.65;;;15.80;1.00;;;;;;5091691;28;20114;-38
2023/03/13 09:36:10;;;;;;;12.23;2.90;;;15.80;1.00;;;;;;5092439;28;20040;-37
2023/03/13 09:38:38;;;;;;;11.65;2.92;;;15.80;1.00;;;;;;5091844;28;20131;-38
2023/03/13 09:41:42;;;;;;;15.07;3.30;;;15.80;1.00;;;;;;5092137;28;20083;-38
2023/03/13 09:44:18;;;;;;;;;;;15.90;1.00;;;;;;5081154;28;20087;-37
2023/03/13 09:47:11;;;;;;;14.95;3.35;;;15.90;1.00;;;;;;5092103;28;19927;-37
2023/03/13 09:49:47;;;;;;;15.73;3.90;;;15.90;1.00;;;;;;5091988;28;20059;-37
2023/03/13 09:52:32;;;;;;;15.07;3.45;;;15.90;1.00;;;;;;5091636;28;20508;-37
2023/03/13 09:55:27;;;;;;;9.90;2.88;;;15.90;1.00;;;;;;5091668;28;20041;-37
2023/03/13 09:58:17;;;;;;;16.25;2.75;;;16.00;1.00;;;;;;5091883;28;20051;-37
2023/03/13 10:00:53;;;;;;;12.90;3.67;;;16.00;1.00;;;;;;5092040;28;20047;-37
2023/03/13 10:03:26;;;;;;;15.20;4.18;;;16.10;1.00;;;;;;5091004;28;20048;-37
2023/03/13 10:05:56;;;;;;;17.48;4.38;;;16.10;1.00;;;;;;5091780;28;20048;-38
2023/03/13 10:08:25;;;;;;;9.35;2.65;;;16.10;1.00;;;;;;5091770;28;20081;-38
2023/03/13 10:10:55;;;;;;;14.48;4.43;;;16.10;1.00;;;;;;5092020;28;20163;-37
2023/03/13 10:13:32;;;;;;;11.52;3.30;;;16.20;1.00;;;;;;5095058;28;20040;-37
2023/03/13 10:16:03;;;;;;;12.85;3.33;;;16.20;1.00;;;;;;5096185;28;20105;-38
2023/03/13 10:18:31;;;;;;;12.55;2.80;;;16.20;1.00;;;;;;5095763;28;20052;-39
2023/03/13 10:21:06;;;;;;;11.02;3.13;;;16.30;1.00;;;;;;5095965;28;20101;-37
2023/03/13 10:23:42;;;;;;;19.50;4.53;;;16.30;1.00;;;;;;5095021;28;20044;-37
2023/03/13 10:26:21;;;;;;;15.27;3.40;;;16.30;1.00;;;;;;5095975;28;20128;-38
2023/03/13 10:28:50;;;;;;;14.90;3.72;;;16.30;1.00;;;;;;5095477;28;20040;-38
2023/03/13 10:31:29;;;;;;;12.80;3.55;;;16.40;1.00;;;;;;5095805;28;20109;-38
2023/03/13 10:34:06;;;;;;;13.98;3.53;;;16.40;1.00;;;;;;5094873;28;20554;-37
2023/03/13 10:36:48;;;;;;;13.80;4.10;;;16.40;1.00;;;;;;5095722;28;20119;-38
2023/03/13 10:39:18;;;;;;;12.52;2.92;;;16.40;1.00;;;;;;5095279;28;20060;-38
2023/03/13 10:41:46;;;;;;;8.57;2.78;;;16.40;1.00;;;;;;5095467;28;20059;-38
2023/03/13 10:44:21;;;;;;;19.80;4.20;;;16.40;1.00;;;;;;5094822;28;20115;-38
2023/03/13 10:46:50;;;;;;;11.40;3.22;;;16.50;1.00;;;;;;5095645;28;20048;-37
2023/03/13 10:49:23;;;;;;;12.90;3.45;;;16.50;1.00;;;;;;5095432;28;20550;-37
2023/03/13 10:51:51;;;;;;;;;;;16.50;1.00;;;;;;5095732;28;20051;-38
2023/03/13 10:54:36;;;;;;;11.73;2.85;;;16.50;1.00;;;;;;5094588;28;19920;-38
2023/03/13 10:57:28;;;;;;;11.90;4.28;;;16.50;1.00;;;;;;5095193;28;20040;-38
2023/03/13 10:59:55;;;;;;;8.20;3.13;;;16.50;1.00;;;;;;5095076;28;20054;-37
2023/03/13 11:02:34;;;;;;;9.70;2.88;;;16.50;1.00;;;;;;5094754;28;20051;-38
2023/03/13 11:05:42;;;;;;;14.40;3.80;;;16.50;1.00;;;;;;5094731;28;20044;-37
2023/03/13 11:08:21;;;;;;;12.13;3.38;;;16.50;1.00;;;;;;5055073;28;20130;-37
2023/03/13 11:10:57;;;;;;;12.35;4.50;;;16.50;1.00;;;;;;5095091;28;20045;-37
2023/03/13 11:13:48;;;;;;;11.55;3.65;;;16.50;1.00;;;;;;5094307;28;20040;-37
2023/03/13 11:16:22;;;;;;;13.55;4.22;;;16.50;1.00;;;;;;5094614;28;20052;-37
2023/03/13 11:19:18;;;;;;;12.30;3.78;;;16.50;1.00;;;;;;5094595;28;20054;-37
2023/03/13 11:22:13;;;;;;;13.95;3.92;;;16.50;1.00;;;;;;5094829;28;20044;-37
2023/03/13 11:25:19;;;;;;;14.88;3.85;;;16.50;1.00;;;;;;5094522;28;20048;-37
2023/03/13 11:28:06;;;;;;;15.23;2.70;;;16.50;1.00;;;;;;5094391;28;20051;-37
2023/03/13 11:30:43;;;;;;;9.52;3.08;;;16.50;1.00;;;;;;5094838;28;20085;-37
2023/03/13 11:33:20;;;;;;;14.10;3.38;;;16.50;1.00;;;;;;5093672;28;20047;-37
2023/03/13 11:36:26;;;;;;;17.13;4.45;;;16.50;1.00;;;;;;5094509;28;20119;-37
2023/03/13 11:39:31;;;;;;;15.00;3.17;;;16.50;1.00;;;;;;5092816;28;20515;-38
2023/03/13 11:42:00;;;;;;;13.93;4.47;;;16.50;1.00;;;;;;5071068;28;20344;-38
2023/03/13 11:45:14;;;;;;;12.73;3.88;;;16.50;1.00;;;;;;5093443;28;20457;-37
2023/03/13 11:47:58;;;;;;;21.08;4.80;;;16.50;1.00;;;;;;5047065;28;20063;-37
2023/03/13 11:50:51;;;;;;;19.23;3.78;;;16.40;1.00;;;;;;5094253;28;20083;-38
2023/03/13 11:53:26;;;;;;;18.45;4.45;;;16.50;1.00;;;;;;5075182;28;20043;-38
2023/03/13 11:56:05;;;;;;;13.02;3.67;;;16.40;1.00;;;;;;5094073;28;20039;-38
2023/03/13 11:58:43;;;;;;;11.73;3.30;;;16.40;1.00;;;;;;5094159;28;20044;-38
2023/03/13 12:01:16;;;;;;;21.25;5.28;;;16.40;1.00;;;;;;5094061;28;20424;-38
2023/03/13 12:03:53;;;;;;;22.15;5.63;;;16.40;1.00;;;;;;5093292;28;20093;-38
2023/03/13 12:06:25;;;;;;;14.60;3.63;;;16.40;1.00;;;;;;5093878;28;20047;-38
2023/03/13 12:09:15;;;;;;;13.88;4.18;;;16.50;1.00;;;;;;5075526;28;20536;-38
2023/03/13 12:12:34;;;;;;;12.40;3.45;;;16.40;1.00;;;;;;5093771;28;20047;-37
2023/03/13 12:15:13;;;;;;;11.70;3.13;;;16.40;1.00;;;;;;5058490;28;20079;-37
2023/03/13 12:17:54;;;;;;;15.40;4.50;;;16.40;1.00;;;;;;5093586;28;20036;-37
2023/03/13 12:20:26;;;;;;;15.10;3.90;;;16.40;1.00;;;;;;5093663;28;20399;-37
2023/03/13 12:23:06;;;;;;;16.60;3.72;;;16.40;1.00;;;;;;5092775;28;20058;-38
2023/03/13 12:25:44;;;;;;;8.43;3.63;;;16.40;1.00;;;;;;5093525;28;20568;-38
2023/03/13 12:28:17;;;;;;;17.27;4.18;;;16.40;1.00;;;;;;5093241;28;20044;-37
2023/03/13 12:30:51;;;;;;;21.02;4.70;;;16.40;1.00;;;;;;5093582;28;20097;-37
2023/03/13 12:33:34;;;;;;;21.15;3.90;;;16.40;1.00;;;;;;5092721;28;20479;-38
2023/03/13 12:36:25;;;;;;;13.48;3.95;;;16.40;1.00;;;;;;5092935;28;20628;-37
2023/03/13 12:39:14;;;;;;;16.73;4.20;;;16.40;1.00;;;;;;5095404;22;20076;-38
2023/03/13 12:41:44;;;;;;;15.80;4.03;;;16.40;1.00;;;;;;5086605;28;20035;-38
2023/03/13 12:44:18;;;;;;;16.30;3.58;;;16.40;1.00;;;;;;5092375;28;20047;-39
2023/03/13 12:47:07;;;;;;;16.83;4.05;;;16.40;1.00;;;;;;5093249;28;20495;-39
2023/03/13 12:50:25;;;;;;;15.75;3.92;;;16.40;1.00;;;;;;5076970;28;20040;-38
2023/03/13 12:53:00;;;;;;;15.60;3.65;;;16.40;1.00;;;;;;5027569;28;20045;-40
2023/03/13 12:55:36;;;;;;;14.05;4.13;;;16.40;1.00;;;;;;5072709;28;20067;-38
2023/03/13 12:58:25;;;;;;;20.55;4.70;;;16.40;1.00;;;;;;5054798;28;20047;-39
2023/03/13 13:00:55;;;;;;;18.98;3.80;;;16.40;1.00;;;;;;5072591;28;20048;-39
2023/03/13 13:03:38;;;;;;;13.00;4.68;;;16.40;1.00;;;;;;5071571;28;20053;-39
2023/03/13 13:06:08;;;;;;;;;;;16.40;1.00;;;;;;5072992;28;20059;-39
2023/03/13 13:08:42;;;;;;;10.88;3.80;;;16.40;1.00;;;;;;5072303;28;19966;-38
2023/03/13 13:11:36;;;;;;;18.20;4.43;;;16.40;1.00;;;;;;5072249;28;20045;-39
2023/03/13 13:14:15;;;;;;;15.40;4.10;;;16.40;1.00;;;;;;5053586;28;20471;-38
2023/03/13 13:16:45;;;;;;;18.92;3.47;;;16.40;1.00;;;;;;5072497;28;20446;-38
2023/03/13 13:19:24;;;;;;;19.40;4.75;;;16.40;1.00;;;;;;5072184;28;20108;-38
2023/03/13 13:22:28;;;;;;;17.42;5.63;;;16.40;1.00;;;;;;5072156;28;20041;-38
2023/03/13 13:24:58;;;;;;;21.00;4.05;;;16.40;1.00;;;;;;5071937;28;20072;-38
2023/03/13 13:27:48;;;;;;;11.35;3.47;;;16.40;1.00;;;;;;5072084;28;20131;-39
2023/03/13 13:30:30;;;;;;;15.70;3.67;;;16.40;1.00;;;;;;5061902;28;20044;-39